Atmore, Alabama
Current Conditions -  °F | °C
As of 2:20 AM on Sunday 23 Nov 2014 (Local Time) from KNSE Reporting Station
Light Rain Light Rain  
Wind Chill: 63°   Ceiling: 400
Heat Index: 63°   Visibility: 10mi
Dew Point: 62°   Wind: 9mph
Humidity: 97%   Direction: 110°ESE
Pressure: 29.87"   Gusts: NA
Location:  31.03°N, 87.49°W
Report Text: KNSE 230820Z AUTO 11008KT 10SM -RA OVC004 17/17 A2987 RMK AO2 RAE03B20 P0000 T01720167 $
Loading
Personal Weather Stations






























Interactive Weather Map New forecast layout! Learn more

10-Day Weather Forecast

Advertisements
Track Severe Weather on mobile